Time;durP1;ratioP1;P1;durP2;ratioP2;P2;SDS_P1;SDS_P2;PMS_P1;PMS_P2;Temp;Humidity;BMP_temperature;BMP_pressure;BME280_temperature;BME280_humidity;BME280_pressure;Samples;Min_cycle;Max_cycle;Signal;HPM_P1;HPM_P2
2023/08/14 00:00:37;;;;;;;;;;;23.20;54.00;;;;;;4950188;28;87823;-49
2023/08/14 00:03:03;;;;;;;;;;;23.20;54.00;;;;;;4954113;28;88202;-52
2023/08/14 00:05:29;;;;;;;;;;;23.20;54.00;;;;;;4951154;28;88152;-49
2023/08/14 00:07:54;;;;;;;;;;;23.20;54.00;;;;;;4953105;28;87076;-49
2023/08/14 00:10:20;;;;;;;;;;;23.10;54.00;;;;;;4952862;28;87526;-53
2023/08/14 00:12:46;;;;;;;;;;;23.10;54.00;;;;;;4949858;28;88909;-50
2023/08/14 00:15:11;;;;;;;;;;;23.10;54.00;;;;;;4951783;28;87718;-49
2023/08/14 00:17:37;;;;;;;;;;;23.10;54.00;;;;;;4951935;28;87122;-51
2023/08/14 00:20:04;;;;;;;;;;;23.10;54.60;;;;;;4956621;28;87349;-48
2023/08/14 00:22:29;;;;;;;;;;;23.10;54.00;;;;;;4951514;28;87144;-47
2023/08/14 00:24:55;;;;;;;;;;;23.10;54.10;;;;;;4952933;28;88431;-49
2023/08/14 00:27:22;;;;;;;;;;;23.10;54.10;;;;;;4947118;28;88065;-49
2023/08/14 00:29:48;;;;;;;;;;;23.10;54.10;;;;;;4952849;28;87813;-48
2023/08/14 00:32:13;;;;;;;;;;;23.10;54.10;;;;;;4949726;28;89748;-49
2023/08/14 00:34:39;;;;;;;;;;;23.00;54.00;;;;;;4951735;28;87131;-49
2023/08/14 00:37:04;;;;;;;;;;;23.10;54.10;;;;;;4954115;28;87280;-53
2023/08/14 00:39:30;;;;;;;;;;;23.10;54.10;;;;;;4950504;28;87161;-47
2023/08/14 00:41:55;;;;;;;;;;;23.00;54.00;;;;;;4952947;28;87647;-48
2023/08/14 00:44:21;;;;;;;;;;;23.00;54.10;;;;;;4953165;28;87663;-52
2023/08/14 00:46:46;;;;;;;;;;;23.00;54.10;;;;;;4951953;28;87341;-50
2023/08/14 00:49:12;;;;;;;;;;;23.00;54.20;;;;;;4952081;28;87640;-50
2023/08/14 00:51:38;;;;;;;;;;;23.00;54.10;;;;;;4950001;28;89007;-47
2023/08/14 00:54:03;;;;;;;;;;;23.00;54.10;;;;;;4953310;28;87107;-52
2023/08/14 00:56:29;;;;;;;;;;;23.00;54.10;;;;;;4952961;28;87054;-52
2023/08/14 00:58:55;;;;;;;;;;;23.00;54.10;;;;;;4953190;28;88141;-46
2023/08/14 01:01:21;;;;;;;;;;;23.00;54.20;;;;;;4956804;28;87126;-49
2023/08/14 01:03:46;;;;;;;;;;;23.00;54.20;;;;;;4956939;28;87727;-50
2023/08/14 01:06:12;;;;;;;;;;;23.00;54.20;;;;;;4954823;28;87103;-50
2023/08/14 01:08:38;;;;;;;;;;;22.90;54.10;;;;;;4955689;28;86675;-51
2023/08/14 01:11:12;;;;;;;;;;;22.90;54.10;;;;;;4955907;28;88123;-52
2023/08/14 01:13:59;;;;;;;;;;;22.90;54.20;;;;;;4948694;28;87342;-52
2023/08/14 01:16:27;;;;;;;;;;;22.90;54.20;;;;;;4956505;28;88686;-51
2023/08/14 01:18:55;;;;;;;;;;;22.90;54.20;;;;;;4954480;28;88195;-48
2023/08/14 01:21:20;;;;;;;;;;;22.90;54.20;;;;;;4949802;28;87018;-51
2023/08/14 01:24:22;;;;;;;;;;;22.90;54.20;;;;;;4955615;28;87560;-48
2023/08/14 01:26:48;;;;;;;;;;;22.90;54.20;;;;;;4937198;28;87411;-50
2023/08/14 01:29:14;;;;;;;;;;;22.90;54.20;;;;;;4948455;28;88068;-50
2023/08/14 01:31:39;;;;;;;;;;;22.90;54.20;;;;;;4956037;28;87145;-50
2023/08/14 01:34:05;;;;;;;;;;;22.80;54.30;;;;;;4950392;28;86552;-49
2023/08/14 01:36:41;;;;;;;;;;;22.80;54.30;;;;;;4953219;28;86997;-46
2023/08/14 01:39:07;;;;;;;;;;;22.80;54.20;;;;;;4953055;28;87467;-50
2023/08/14 01:41:46;;;;;;;;;;;22.80;54.20;;;;;;4949003;28;88091;-49
2023/08/14 01:44:14;;;;;;;;;;;22.80;54.30;;;;;;4950273;28;88359;-47
2023/08/14 01:46:42;;;;;;;;;;;22.80;54.30;;;;;;4955519;28;87726;-49
2023/08/14 01:49:09;;;;;;;;;;;22.80;54.30;;;;;;4952306;28;87172;-47
2023/08/14 01:51:34;;;;;;;;;;;22.80;54.30;;;;;;4953391;28;88170;-50
2023/08/14 01:54:00;;;;;;;;;;;22.80;54.30;;;;;;4955501;28;87455;-51
2023/08/14 01:56:25;;;;;;;;;;;22.80;54.40;;;;;;4954622;28;87098;-48
2023/08/14 01:58:51;;;;;;;;;;;22.70;54.30;;;;;;4952962;28;86344;-46
2023/08/14 02:01:16;;;;;;;;;;;22.70;54.30;;;;;;4955496;28;87158;-50
2023/08/14 02:03:42;;;;;;;;;;;22.70;54.30;;;;;;4952909;28;87559;-50
2023/08/14 02:06:07;;;;;;;;;;;22.70;54.40;;;;;;4948355;28;89178;-52
2023/08/14 02:08:33;;;;;;;;;;;22.70;54.30;;;;;;4952843;28;87413;-47
2023/08/14 02:10:58;;;;;;;;;;;22.70;54.40;;;;;;4958519;28;87817;-49
2023/08/14 02:13:24;;;;;;;;;;;22.70;54.40;;;;;;4952694;28;87111;-47
2023/08/14 02:15:50;;;;;;;;;;;22.70;54.40;;;;;;4954986;28;87752;-46
2023/08/14 02:18:15;;;;;;;;;;;22.70;54.40;;;;;;4954277;28;88328;-48
2023/08/14 02:20:44;;;;;;;;;;;22.60;54.40;;;;;;4952078;28;87714;-50
2023/08/14 02:23:10;;;;;;;;;;;22.60;54.40;;;;;;4956232;28;88632;-53
2023/08/14 02:25:39;;;;;;;;;;;22.60;54.40;;;;;;4952254;28;88215;-49
2023/08/14 02:28:04;;;;;;;;;;;22.60;54.40;;;;;;4955505;28;87202;-51
2023/08/14 02:30:30;;;;;;;;;;;22.60;54.50;;;;;;4955208;28;88046;-49
2023/08/14 02:32:56;;;;;;;;;;;22.60;54.50;;;;;;4954103;28;87065;-48
2023/08/14 02:35:22;;;;;;;;;;;22.60;54.50;;;;;;4954393;28;87661;-48
2023/08/14 02:37:47;;;;;;;;;;;22.60;54.50;;;;;;4951037;28;88156;-50
2023/08/14 02:40:13;;;;;;;;;;;22.60;54.50;;;;;;4955735;28;87317;-48
2023/08/14 02:42:38;;;;;;;;;;;22.50;54.40;;;;;;4952271;28;87416;-48
2023/08/14 02:45:04;;;;;;;;;;;22.50;55.10;;;;;;4956015;28;88025;-46
2023/08/14 02:47:30;;;;;;;;;;;22.50;54.50;;;;;;4953613;28;86429;-49
2023/08/14 02:49:55;;;;;;;;;;;22.50;54.50;;;;;;4954126;28;87074;-50
2023/08/14 02:52:21;;;;;;;;;;;22.50;55.10;;;;;;4950587;28;88268;-51
2023/08/14 02:54:46;;;;;;;;;;;22.50;54.50;;;;;;4952766;28;87984;-53
2023/08/14 02:57:12;;;;;;;;;;;22.50;54.50;;;;;;4954457;28;87924;-47
2023/08/14 02:59:37;;;;;;;;;;;22.40;54.50;;;;;;4951974;28;87236;-46
2023/08/14 03:02:03;;;;;;;;;;;22.50;54.50;;;;;;4955593;28;87262;-50
2023/08/14 03:04:29;;;;;;;;;;;22.40;54.50;;;;;;4952636;28;88336;-50
2023/08/14 03:06:55;;;;;;;;;;;22.40;54.50;;;;;;4948761;28;87339;-50
2023/08/14 03:09:20;;;;;;;;;;;22.40;54.50;;;;;;4954372;28;87445;-48
2023/08/14 03:11:46;;;;;;;;;;;22.40;54.60;;;;;;4953749;28;86533;-49
2023/08/14 03:14:11;;;;;;;;;;;22.40;54.50;;;;;;4955168;28;87270;-53
2023/08/14 03:16:38;;;;;;;;;;;22.40;54.60;;;;;;4952389;28;88245;-48
2023/08/14 03:19:03;;;;;;;;;;;22.40;54.60;;;;;;4951208;28;88452;-52
2023/08/14 03:21:29;;;;;;;;;;;22.40;54.60;;;;;;4953063;28;88348;-51
2023/08/14 03:23:54;;;;;;;;;;;22.40;54.50;;;;;;4951494;28;87984;-49
2023/08/14 03:26:20;;;;;;;;;;;22.30;54.50;;;;;;4954672;28;87421;-52
2023/08/14 03:28:45;;;;;;;;;;;22.30;54.60;;;;;;4952854;28;87436;-49
2023/08/14 03:31:12;;;;;;;;;;;22.30;54.60;;;;;;4950295;28;88154;-51
2023/08/14 03:33:37;;;;;;;;;;;22.30;54.60;;;;;;4949023;28;88253;-50
2023/08/14 03:36:03;;;;;;;;;;;22.30;54.60;;;;;;4950227;28;87690;-51
2023/08/14 03:38:29;;;;;;;;;;;22.20;54.60;;;;;;4953979;28;87501;-52
2023/08/14 03:40:54;;;;;;;;;;;22.20;54.60;;;;;;4949500;28;87227;-51
2023/08/14 03:43:20;;;;;;;;;;;22.20;55.30;;;;;;4942392;28;89008;-46
2023/08/14 03:45:45;;;;;;;;;;;22.20;54.60;;;;;;4949081;28;87192;-50
2023/08/14 03:48:12;;;;;;;;;;;22.20;54.60;;;;;;4952519;28;87660;-49
2023/08/14 03:50:38;;;;;;;;;;;22.20;54.60;;;;;;4946402;28;89557;-50
2023/08/14 03:53:03;;;;;;;;;;;22.20;54.60;;;;;;4946536;28;87152;-50
2023/08/14 03:55:29;;;;;;;;;;;22.20;54.70;;;;;;4940925;28;87466;-52
2023/08/14 03:57:56;;;;;;;;;;;22.10;54.60;;;;;;4956863;28;88239;-48
2023/08/14 04:00:21;;;;;;;;;;;22.10;54.70;;;;;;4945252;28;90608;-49
2023/08/14 04:02:47;;;;;;;;;;;22.10;54.70;;;;;;4945334;28;88995;-50
2023/08/14 04:05:13;;;;;;;;;;;22.10;54.70;;;;;;4947291;28;87173;-50
2023/08/14 04:07:38;;;;;;;;;;;22.10;54.70;;;;;;4951195;28;87957;-49
2023/08/14 04:10:04;;;;;;;;;;;22.10;54.70;;;;;;4950728;28;88051;-52
2023/08/14 04:12:30;;;;;;;;;;;22.10;54.70;;;;;;4948387;28;87275;-48
2023/08/14 04:15:10;;;;;;;;;;;22.10;54.70;;;;;;4950746;28;87504;-50
2023/08/14 04:17:36;;;;;;;;;;;22.10;54.70;;;;;;4949254;28;88655;-52
2023/08/14 04:20:02;;;;;;;;;;;22.00;54.70;;;;;;4950232;28;87144;-51
2023/08/14 04:22:27;;;;;;;;;;;22.00;55.40;;;;;;4943732;28;88116;-49
2023/08/14 04:24:53;;;;;;;;;;;22.00;54.80;;;;;;4954228;28;86343;-46
2023/08/14 04:27:19;;;;;;;;;;;22.00;54.80;;;;;;4949653;28;87033;-49
2023/08/14 04:29:44;;;;;;;;;;;22.00;54.80;;;;;;4951921;28;88130;-52
2023/08/14 04:32:10;;;;;;;;;;;22.00;54.80;;;;;;4954078;28;88564;-49
2023/08/14 04:34:36;;;;;;;;;;;21.90;54.80;;;;;;4956950;28;88518;-50
2023/08/14 04:37:02;;;;;;;;;;;22.00;54.80;;;;;;4952576;28;88268;-47
2023/08/14 04:39:27;;;;;;;;;;;22.00;54.90;;;;;;4945389;28;87168;-47
2023/08/14 04:41:53;;;;;;;;;;;21.90;54.80;;;;;;4952364;28;88261;-49
2023/08/14 04:44:18;;;;;;;;;;;21.90;54.90;;;;;;4954895;28;87071;-48
2023/08/14 04:46:44;;;;;;;;;;;21.90;54.90;;;;;;4953109;28;87168;-53
2023/08/14 04:49:09;;;;;;;;;;;21.90;54.90;;;;;;4948020;28;87550;-49
2023/08/14 04:51:35;;;;;;;;;;;21.90;54.90;;;;;;4951913;28;87187;-49
2023/08/14 04:54:00;;;;;;;;;;;21.90;54.90;;;;;;4954282;28;87444;-49
2023/08/14 04:56:26;;;;;;;;;;;21.90;54.90;;;;;;4950799;28;89873;-47
2023/08/14 04:58:52;;;;;;;;;;;21.90;54.80;;;;;;4953808;28;89043;-49
2023/08/14 05:01:18;;;;;;;;;;;21.90;54.90;;;;;;4947273;28;88656;-46
2023/08/14 05:03:43;;;;;;;;;;;21.90;54.80;;;;;;4956526;28;88051;-49
2023/08/14 05:06:09;;;;;;;;;;;21.90;54.80;;;;;;4952753;28;87219;-50
2023/08/14 05:08:34;;;;;;;;;;;21.80;54.80;;;;;;4953996;28;88692;-48
2023/08/14 05:11:00;;;;;;;;;;;21.90;54.80;;;;;;4950578;28;87302;-48
2023/08/14 05:13:25;;;;;;;;;;;21.80;54.70;;;;;;4956909;28;86683;-50
2023/08/14 05:15:51;;;;;;;;;;;21.90;54.80;;;;;;4950666;28;88895;-50
2023/08/14 05:18:17;;;;;;;;;;;21.80;54.80;;;;;;4946086;28;87498;-49
2023/08/14 05:20:43;;;;;;;;;;;21.80;54.80;;;;;;4947171;28;88148;-50
2023/08/14 05:23:09;;;;;;;;;;;21.80;54.90;;;;;;4955322;28;87952;-48
2023/08/14 05:25:35;;;;;;;;;;;21.80;54.90;;;;;;4952704;28;87414;-52
2023/08/14 05:28:00;;;;;;;;;;;21.80;54.90;;;;;;4941089;28;87428;-50
2023/08/14 05:30:26;;;;;;;;;;;21.80;54.90;;;;;;4951605;28;87027;-48
2023/08/14 05:32:51;;;;;;;;;;;21.80;54.90;;;;;;4956330;28;87364;-49
2023/08/14 05:35:22;;;;;;;;;;;21.80;55.00;;;;;;4948892;28;88106;-50
2023/08/14 05:37:48;;;;;;;;;;;21.80;55.00;;;;;;4937737;28;87373;-50
2023/08/14 05:40:14;;;;;;;;;;;21.80;55.00;;;;;;4952996;28;87193;-48
2023/08/14 05:42:40;;;;;;;;;;;21.80;55.00;;;;;;4956000;28;88545;-49
2023/08/14 05:45:06;;;;;;;;;;;21.80;55.00;;;;;;4945248;28;89769;-48
2023/08/14 05:47:31;;;;;;;;;;;21.80;55.00;;;;;;4952232;28;88104;-47
2023/08/14 05:49:57;;;;;;;;;;;21.80;55.00;;;;;;4954042;28;87238;-47
2023/08/14 05:52:22;;;;;;;;;;;21.80;55.10;;;;;;4953480;28;87438;-50
2023/08/14 05:54:47;;;;;;;;;;;21.80;55.00;;;;;;4944458;28;88196;-49
2023/08/14 05:57:13;;;;;;;;;;;21.80;55.10;;;;;;4951243;28;87180;-51
2023/08/14 05:59:39;;;;;;;;;;;21.80;55.20;;;;;;4952533;28;87833;-50
2023/08/14 06:02:05;;;;;;;;;;;21.80;55.10;;;;;;4956086;28;87362;-47
2023/08/14 06:04:30;;;;;;;;;;;21.80;55.20;;;;;;4943591;28;87358;-52
2023/08/14 06:06:56;;;;;;;;;;;21.80;55.10;;;;;;4946406;28;87813;-46
2023/08/14 06:09:21;;;;;;;;;;;21.80;55.10;;;;;;4951804;28;88147;-48
2023/08/14 06:11:47;;;;;;;;;;;21.80;55.20;;;;;;4954073;28;88368;-49
2023/08/14 06:14:12;;;;;;;;;;;21.80;55.10;;;;;;4948651;28;88386;-49
2023/08/14 06:16:38;;;;;;;;;;;21.80;55.20;;;;;;4942362;28;88428;-52
2023/08/14 06:19:03;;;;;;;;;;;21.80;55.20;;;;;;4955615;28;87468;-49
2023/08/14 06:21:29;;;;;;;;;;;21.80;55.20;;;;;;4951678;28;88092;-51
2023/08/14 06:23:54;;;;;;;;;;;21.80;55.20;;;;;;4949546;28;87261;-49
2023/08/14 06:26:21;;;;;;;;;;;21.80;55.30;;;;;;4946298;28;87614;-49
2023/08/14 06:28:46;;;;;;;;;;;21.80;55.30;;;;;;4955307;28;87215;-50
2023/08/14 06:31:12;;;;;;;;;;;21.80;55.30;;;;;;4954349;28;87604;-51
2023/08/14 06:33:37;;;;;;;;;;;21.80;55.30;;;;;;4944984;28;88607;-49
2023/08/14 06:36:03;;;;;;;;;;;21.80;55.30;;;;;;4948233;28;87612;-50
2023/08/14 06:38:28;;;;;;;;;;;21.80;55.30;;;;;;4948391;28;87659;-52
2023/08/14 06:40:54;;;;;;;;;;;21.80;55.30;;;;;;4944137;28;91222;-46
2023/08/14 06:43:20;;;;;;;;;;;21.80;55.30;;;;;;4948910;28;88064;-51
2023/08/14 06:45:47;;;;;;;;;;;21.80;55.10;;;;;;4951331;28;87198;-49
2023/08/14 06:48:13;;;;;;;;;;;21.80;55.20;;;;;;4957538;28;88183;-50
2023/08/14 06:50:39;;;;;;;;;;;21.80;55.10;;;;;;4949572;28;87491;-50
2023/08/14 06:53:04;;;;;;;;;;;21.80;55.10;;;;;;4936715;28;88015;-47
2023/08/14 06:55:30;;;;;;;;;;;21.80;55.10;;;;;;4951029;28;87201;-48
2023/08/14 06:57:55;;;;;;;;;;;21.80;55.00;;;;;;4952304;28;88051;-49
2023/08/14 07:00:21;;;;;;;;;;;21.80;55.00;;;;;;4950350;28;88284;-47
2023/08/14 07:02:47;;;;;;;;;;;21.80;55.00;;;;;;4944018;28;87398;-49
2023/08/14 07:05:13;;;;;;;;;;;21.80;55.00;;;;;;4952423;28;87484;-53
2023/08/14 07:07:39;;;;;;;;;;;21.80;55.00;;;;;;4951141;28;87468;-49
2023/08/14 07:10:05;;;;;;;;;;;21.80;55.00;;;;;;4948370;28;88925;-53
2023/08/14 07:12:30;;;;;;;;;;;21.80;55.00;;;;;;4943269;28;87694;-49
2023/08/14 07:14:56;;;;;;;;;;;21.80;55.00;;;;;;4953171;28;86540;-53
2023/08/14 07:17:22;;;;;;;;;;;21.80;55.00;;;;;;4954743;28;87136;-51
2023/08/14 07:19:47;;;;;;;;;;;21.80;55.00;;;;;;4946720;28;89310;-49
2023/08/14 07:22:13;;;;;;;;;;;21.80;55.00;;;;;;4948578;28;88120;-53
2023/08/14 07:24:38;;;;;;;;;;;21.80;54.90;;;;;;4952653;28;87555;-53
2023/08/14 07:27:04;;;;;;;;;;;21.80;54.90;;;;;;4948684;28;87870;-49
2023/08/14 07:29:30;;;;;;;;;;;21.80;55.00;;;;;;4938785;28;87123;-54
2023/08/14 07:31:56;;;;;;;;;;;21.80;54.90;;;;;;4948909;28;87395;-48
2023/08/14 07:34:21;;;;;;;;;;;21.80;54.90;;;;;;4952587;28;87168;-49
2023/08/14 07:36:47;;;;;;;;;;;21.90;54.80;;;;;;4947922;28;87581;-51
2023/08/14 07:39:12;;;;;;;;;;;21.80;54.70;;;;;;4943146;28;87494;-49
2023/08/14 07:41:38;;;;;;;;;;;21.80;54.80;;;;;;4938441;28;87318;-52
2023/08/14 07:44:03;;;;;;;;;;;21.80;54.70;;;;;;4951588;28;87643;-49
2023/08/14 07:46:29;;;;;;;;;;;21.80;54.60;;;;;;4951283;28;89043;-50
2023/08/14 07:48:54;;;;;;;;;;;21.80;54.50;;;;;;4946171;28;87281;-47
2023/08/14 07:51:21;;;;;;;;;;;21.80;54.60;;;;;;4945664;28;87255;-48
2023/08/14 07:53:47;;;;;;;;;;;21.90;54.50;;;;;;4954412;28;87545;-52
2023/08/14 07:56:12;;;;;;;;;;;21.80;55.20;;;;;;4950267;28;88921;-52
2023/08/14 07:58:39;;;;;;;;;;;21.80;54.50;;;;;;4951119;28;88217;-52
2023/08/14 08:01:05;;;;;;;;;;;21.80;54.40;;;;;;4944716;28;88219;-47
2023/08/14 08:03:30;;;;;;;;;;;21.80;54.30;;;;;;4951719;28;87200;-52
2023/08/14 08:05:56;;;;;;;;;;;21.90;54.20;;;;;;4951353;28;88181;-47
2023/08/14 08:08:22;;;;;;;;;;;21.80;53.90;;;;;;4945349;28;87267;-48
2023/08/14 08:10:47;;;;;;;;;;;21.90;53.90;;;;;;4946916;28;88192;-53
2023/08/14 08:13:13;;;;;;;;;;;21.90;54.00;;;;;;4950932;28;87301;-53
2023/08/14 08:15:38;;;;;;;;;;;21.80;53.80;;;;;;4950341;28;87756;-49
2023/08/14 08:18:04;;;;;;;;;;;21.90;53.80;;;;;;4937113;28;88095;-47
2023/08/14 08:20:30;;;;;;;;;;;21.90;53.60;;;;;;4949831;28;87534;-46
2023/08/14 08:22:55;;;;;;;;;;;21.90;53.70;;;;;;4951398;28;87076;-50
2023/08/14 08:25:21;;;;;;;;;;;21.90;53.70;;;;;;4943003;28;88242;-49
2023/08/14 08:27:46;;;;;;;;;;;21.90;53.50;;;;;;4941445;28;86674;-52
2023/08/14 08:30:12;;;;;;;;;;;21.90;53.60;;;;;;4950303;28;87027;-49
2023/08/14 08:32:38;;;;;;;;;;;21.90;53.70;;;;;;4949756;28;88000;-53
2023/08/14 08:35:03;;;;;;;;;;;21.90;53.60;;;;;;4948891;28;88062;-48
2023/08/14 08:37:29;;;;;;;;;;;21.90;53.70;;;;;;4944738;28;88086;-51
2023/08/14 08:39:54;;;;;;;;;;;21.90;53.70;;;;;;4949882;28;87293;-48
2023/08/14 08:42:22;;;;;;;;;;;22.00;53.60;;;;;;4953986;28;87446;-48
2023/08/14 08:44:49;;;;;;;;;;;22.00;53.70;;;;;;4944001;28;88238;-48
2023/08/14 08:47:16;;;;;;;;;;;22.00;53.60;;;;;;4948740;28;87400;-51
2023/08/14 08:49:41;;;;;;;;;;;22.00;53.80;;;;;;4952786;28;87573;-48
2023/08/14 08:52:07;;;;;;;;;;;22.00;53.70;;;;;;4948940;28;87513;-50
2023/08/14 08:54:33;;;;;;;;;;;22.00;53.70;;;;;;4945574;28;88430;-49
2023/08/14 08:56:59;;;;;;;;;;;22.00;53.70;;;;;;4939965;28;87179;-50
2023/08/14 08:59:25;;;;;;;;;;;22.00;53.60;;;;;;4952855;28;88065;-51
2023/08/14 09:01:51;;;;;;;;;;;22.10;53.60;;;;;;4951799;28;88486;-48
2023/08/14 09:04:17;;;;;;;;;;;22.00;53.60;;;;;;4940542;28;87923;-51
2023/08/14 09:06:42;;;;;;;;;;;22.00;53.50;;;;;;4938917;28;88293;-47
2023/08/14 09:09:11;;;;;;;;;;;22.00;53.40;;;;;;4949306;28;87672;-47
2023/08/14 09:11:37;;;;;;;;;;;22.00;53.50;;;;;;4951345;28;88212;-48
2023/08/14 09:14:03;;;;;;;;;;;22.10;53.50;;;;;;4940450;28;88055;-46
2023/08/14 09:16:28;;;;;;;;;;;22.00;53.30;;;;;;4941345;28;87356;-50
2023/08/14 09:18:56;;;;;;;;;;;22.10;53.30;;;;;;4957366;28;87939;-50
2023/08/14 09:21:22;;;;;;;;;;;22.10;53.30;;;;;;4952622;28;87107;-51
2023/08/14 09:23:47;;;;;;;;;;;22.10;53.40;;;;;;4939965;28;88308;-46
2023/08/14 09:26:13;;;;;;;;;;;22.10;53.30;;;;;;4950738;28;87303;-47
2023/08/14 09:28:38;;;;;;;;;;;22.10;53.30;;;;;;4956959;28;87537;-50
2023/08/14 09:31:05;;;;;;;;;;;22.10;53.40;;;;;;4956766;28;87618;-52
2023/08/14 09:33:31;;;;;;;;;;;22.10;53.40;;;;;;4939675;28;88922;-49
2023/08/14 09:35:57;;;;;;;;;;;22.10;53.30;;;;;;4949409;28;87497;-48
2023/08/14 09:38:23;;;;;;;;;;;22.20;53.30;;;;;;4955120;28;88274;-50
2023/08/14 09:40:48;;;;;;;;;;;22.20;53.40;;;;;;4954891;28;86899;-51
2023/08/14 09:43:14;;;;;;;;;;;22.20;53.60;;;;;;4948831;28;88821;-55
2023/08/14 09:45:39;;;;;;;;;;;22.20;53.50;;;;;;4951199;28;87416;-49
2023/08/14 09:48:05;;;;;;;;;;;22.20;53.40;;;;;;4956701;28;87975;-48
2023/08/14 09:50:31;;;;;;;;;;;22.20;53.40;;;;;;4945814;28;88075;-49
2023/08/14 09:52:58;;;;;;;;;;;22.20;53.50;;;;;;4950621;28;87881;-47
2023/08/14 09:55:26;;;;;;;;;;;22.30;53.40;;;;;;4944855;28;87447;-49
2023/08/14 09:57:53;;;;;;;;;;;22.30;53.40;;;;;;4954477;28;88096;-47
2023/08/14 10:00:18;;;;;;;;;;;22.30;53.50;;;;;;4936413;28;87782;-48
2023/08/14 10:02:46;;;;;;;;;;;22.30;53.10;;;;;;4948817;28;88953;-51
2023/08/14 10:05:12;;;;;;;;;;;22.30;53.20;;;;;;4952082;28;86503;-51
2023/08/14 10:07:38;;;;;;;;;;;22.30;53.10;;;;;;4954810;28;87416;-52
2023/08/14 10:10:06;;;;;;;;;;;22.30;53.10;;;;;;4947086;28;88164;-48
2023/08/14 10:12:33;;;;;;;;;;;22.40;52.90;;;;;;4943298;28;88020;-50
2023/08/14 10:15:08;;;;;;;;;;;22.40;53.00;;;;;;4950954;28;87937;-50
2023/08/14 10:17:41;;;;;;;;;;;22.40;52.90;;;;;;4950100;28;88109;-50
2023/08/14 10:20:10;;;;;;;;;;;22.50;52.70;;;;;;4954027;28;88966;-49
2023/08/14 10:22:36;;;;;;;;;;;22.50;52.50;;;;;;4952144;28;88917;-50
2023/08/14 10:25:02;;;;;;;;;;;22.50;52.70;;;;;;4955014;28;88112;-50
2023/08/14 10:27:27;;;;;;;;;;;22.50;52.80;;;;;;4953111;28;87635;-53
2023/08/14 10:29:53;;;;;;;;;;;22.50;52.70;;;;;;4942208;28;87638;-47
2023/08/14 10:32:19;;;;;;;;;;;22.50;52.70;;;;;;4948681;28;87180;-49
2023/08/14 10:34:44;;;;;;;;;;;22.60;52.70;;;;;;4954656;28;87405;-50
2023/08/14 10:37:26;;;;;;;;;;;22.60;52.70;;;;;;4951684;28;89148;-48
2023/08/14 10:39:51;;;;;;;;;;;22.50;52.80;;;;;;4944541;28;87824;-50
2023/08/14 10:42:17;;;;;;;;;;;22.60;52.70;;;;;;4946425;28;88223;-49
2023/08/14 10:44:43;;;;;;;;;;;22.60;52.60;;;;;;4955825;28;88651;-50
2023/08/14 10:47:11;;;;;;;;;;;22.60;52.30;;;;;;4950522;28;87414;-50
2023/08/14 10:49:43;;;;;;;;;;;22.70;52.50;;;;;;4941934;28;88155;-47
2023/08/14 10:52:12;;;;;;;;;;;22.60;52.50;;;;;;4947775;28;87418;-50
2023/08/14 10:54:37;;;;;;;;;;;22.60;52.70;;;;;;4954177;28;86615;-49
2023/08/14 10:57:06;;;;;;;;;;;22.60;52.40;;;;;;4951426;28;87546;-53
2023/08/14 10:59:33;;;;;;;;;;;22.70;52.60;;;;;;4949275;28;87184;-47
2023/08/14 11:02:11;;;;;;;;;;;22.70;52.50;;;;;;4948772;28;87983;-47
2023/08/14 11:04:56;;;;;;;;;;;22.70;52.70;;;;;;4950991;28;88387;-47
2023/08/14 11:07:24;;;;;;;;;;;22.70;52.60;;;;;;4946798;28;88156;-50
2023/08/14 11:09:50;;;;;;;;;;;22.80;52.50;;;;;;4942820;28;89980;-47
2023/08/14 11:12:15;;;;;;;;;;;22.80;52.50;;;;;;4947965;28;87339;-50
2023/08/14 11:14:41;;;;;;;;;;;22.80;52.80;;;;;;4953393;28;87378;-50
2023/08/14 11:17:08;;;;;;;;;;;22.80;52.70;;;;;;4946150;28;88074;-49
2023/08/14 11:19:34;;;;;;;;;;;22.80;52.60;;;;;;4947119;28;86765;-51
2023/08/14 11:22:00;;;;;;;;;;;22.90;52.40;;;;;;4955068;28;87360;-48
2023/08/14 11:24:26;;;;;;;;;;;22.90;52.70;;;;;;4951663;28;88831;-46
2023/08/14 11:26:52;;;;;;;;;;;22.90;53.20;;;;;;4943286;28;88906;-47
2023/08/14 11:29:18;;;;;;;;;;;22.90;52.70;;;;;;4952575;28;88415;-50
2023/08/14 11:31:44;;;;;;;;;;;22.90;52.60;;;;;;4952976;28;87176;-49
2023/08/14 11:34:09;;;;;;;;;;;23.00;52.60;;;;;;4951851;28;87386;-48
2023/08/14 11:36:38;;;;;;;;;;;23.00;52.60;;;;;;4938262;28;88493;-50
2023/08/14 11:39:04;;;;;;;;;;;23.00;52.60;;;;;;4943530;28;87170;-49
2023/08/14 11:41:32;;;;;;;;;;;23.00;52.70;;;;;;4953130;28;87462;-49
2023/08/14 11:43:58;;;;;;;;;;;23.10;52.70;;;;;;4949681;28;87504;-50
2023/08/14 11:46:24;;;;;;;;;;;23.10;52.80;;;;;;4938939;28;88932;-52
2023/08/14 11:48:49;;;;;;;;;;;23.10;52.90;;;;;;4946642;28;87753;-51
2023/08/14 11:51:15;;;;;;;;;;;23.10;52.90;;;;;;4956258;28;88896;-46
2023/08/14 11:53:40;;;;;;;;;;;23.10;52.90;;;;;;4945575;28;88545;-47
2023/08/14 11:56:06;;;;;;;;;;;23.10;52.80;;;;;;4943238;28;88267;-52
2023/08/14 11:58:32;;;;;;;;;;;23.10;52.80;;;;;;4949097;28;87158;-49
2023/08/14 12:00:58;;;;;;;;;;;23.10;52.80;;;;;;4953284;28;89058;-48
2023/08/14 12:03:24;;;;;;;;;;;23.20;52.80;;;;;;4944542;28;88020;-49
2023/08/14 12:05:59;;;;;;;;;;;23.20;52.60;;;;;;4940426;28;87960;-49
2023/08/14 12:08:24;;;;;;;;;;;23.20;52.70;;;;;;4948002;28;86914;-51
2023/08/14 12:10:50;;;;;;;;;;;23.20;52.80;;;;;;4952184;28;88213;-53
2023/08/14 12:13:19;;;;;;;;;;;23.20;52.80;;;;;;4948345;28;88051;-50
2023/08/14 12:15:46;;;;;;;;;;;23.30;52.90;;;;;;4942847;28;89167;-46
2023/08/14 12:18:12;;;;;;;;;;;23.30;53.10;;;;;;4953633;28;87148;-48
2023/08/14 12:20:38;;;;;;;;;;;23.40;52.90;;;;;;4947436;28;87629;-50
2023/08/14 12:23:13;;;;;;;;;;;23.30;52.90;;;;;;4948321;28;87800;-48
2023/08/14 12:25:38;;;;;;;;;;;23.40;53.10;;;;;;4943653;28;88090;-47
2023/08/14 12:28:04;;;;;;;;;;;23.30;52.80;;;;;;4952019;28;87466;-49
2023/08/14 12:30:29;;;;;;;;;;;23.40;53.10;;;;;;4951115;28;89590;-47
2023/08/14 12:32:57;;;;;;;;;;;23.40;53.00;;;;;;4946991;28;88264;-50
2023/08/14 12:35:22;;;;;;;;;;;23.40;52.90;;;;;;4939703;28;87376;-51
2023/08/14 12:37:48;;;;;;;;;;;23.50;53.00;;;;;;4954247;28;87169;-50
2023/08/14 12:40:13;;;;;;;;;;;23.50;53.10;;;;;;4948739;28;88007;-50
2023/08/14 12:42:39;;;;;;;;;;;23.50;53.00;;;;;;4941103;28;87999;-47
2023/08/14 12:45:05;;;;;;;;;;;23.50;52.90;;;;;;4944526;28;87202;-48
2023/08/14 12:47:31;;;;;;;;;;;23.50;53.00;;;;;;4952824;28;86993;-47
2023/08/14 12:49:56;;;;;;;;;;;23.50;53.00;;;;;;4948610;28;89019;-50
2023/08/14 12:52:22;;;;;;;;;;;23.60;53.00;;;;;;4943800;28;89089;-47
2023/08/14 12:54:47;;;;;;;;;;;23.60;53.00;;;;;;4958630;28;87829;-48
2023/08/14 12:57:16;;;;;;;;;;;23.60;53.10;;;;;;4952623;28;87327;-48
2023/08/14 12:59:41;;;;;;;;;;;23.60;53.10;;;;;;4951236;28;87863;-47
2023/08/14 13:02:07;;;;;;;;;;;23.70;53.00;;;;;;4945022;28;91595;-50
2023/08/14 13:04:32;;;;;;;;;;;23.60;52.90;;;;;;4953436;28;88099;-54
2023/08/14 13:06:58;;;;;;;;;;;23.70;52.90;;;;;;4956286;28;88420;-48
2023/08/14 13:09:23;;;;;;;;;;;23.70;53.10;;;;;;4945229;28;88537;-48
2023/08/14 13:11:49;;;;;;;;;;;23.70;53.10;;;;;;4947159;28;87260;-49
2023/08/14 13:14:14;;;;;;;;;;;23.70;53.00;;;;;;4957045;28;87564;-49
2023/08/14 13:16:40;;;;;;;;;;;23.70;53.00;;;;;;4956863;28;88637;-46
2023/08/14 13:19:06;;;;;;;;;;;23.70;53.10;;;;;;4953772;28;87330;-50
2023/08/14 13:21:31;;;;;;;;;;;23.70;53.00;;;;;;4946667;28;88219;-50
2023/08/14 13:23:57;;;;;;;;;;;23.80;53.00;;;;;;4953201;28;87095;-49
2023/08/14 13:26:23;;;;;;;;;;;23.80;53.00;;;;;;4953303;28;87687;-49
2023/08/14 13:28:48;;;;;;;;;;;23.80;53.00;;;;;;4951472;28;88952;-51
2023/08/14 13:31:14;;;;;;;;;;;23.80;53.00;;;;;;4950527;28;87182;-49
2023/08/14 13:33:40;;;;;;;;;;;23.80;53.00;;;;;;4953279;28;87326;-50
2023/08/14 13:36:05;;;;;;;;;;;23.80;53.00;;;;;;4956137;28;88246;-49
2023/08/14 13:38:31;;;;;;;;;;;23.90;53.00;;;;;;4948652;28;87169;-50
2023/08/14 13:40:57;;;;;;;;;;;23.90;53.00;;;;;;4947650;28;87305;-48
2023/08/14 13:43:23;;;;;;;;;;;23.90;53.00;;;;;;4955405;28;87160;-47
2023/08/14 13:45:48;;;;;;;;;;;23.90;52.80;;;;;;4952829;28;87431;-52
2023/08/14 13:48:14;;;;;;;;;;;23.90;52.90;;;;;;4944670;28;88060;-50
2023/08/14 13:50:39;;;;;;;;;;;24.00;52.90;;;;;;4949356;28;87416;-52
2023/08/14 13:53:05;;;;;;;;;;;24.00;52.90;;;;;;4950832;28;89191;-52
2023/08/14 13:55:31;;;;;;;;;;;24.00;52.90;;;;;;4950045;28;87732;-50
2023/08/14 13:57:57;;;;;;;;;;;24.00;52.80;;;;;;4943704;28;87628;-49
2023/08/14 14:00:22;;;;;;;;;;;24.00;52.80;;;;;;4946894;28;88439;-49
2023/08/14 14:02:48;;;;;;;;;;;24.10;52.90;;;;;;4954552;28;87219;-47
2023/08/14 14:05:15;;;;;;;;;;;24.10;52.80;;;;;;4946140;28;87477;-47
2023/08/14 14:07:40;;;;;;;;;;;24.10;52.90;;;;;;4947853;28;87853;-48
2023/08/14 14:10:06;;;;;;;;;;;24.10;52.90;;;;;;4952432;28;86500;-48